Time;durP1;ratioP1;P1;durP2;ratioP2;P2;SDS_P1;SDS_P2;PMS_P1;PMS_P2;Temp;Humidity;BMP_temperature;BMP_pressure;BME280_temperature;BME280_humidity;BME280_pressure;Samples;Min_cycle;Max_cycle;Signal;HPM_P1;HPM_P2
2021/07/20 00:01:04;;;;;;;13.65;7.78;;;;;;;16.41;60.83;102023.53;10437010;28;20464;-81
2021/07/20 00:06:07;;;;;;;10.07;6.80;;;;;;;17.48;60.49;102191.31;10420711;28;20060;-81
2021/07/20 00:11:08;;;;;;;15.18;6.30;;;;;;;17.38;60.80;102180.78;10420844;28;20057;-82
2021/07/20 00:16:09;;;;;;;17.73;8.05;;;;;;;17.29;61.30;102178.47;10439473;28;20119;-81
2021/07/20 00:21:10;;;;;;;15.50;9.63;;;;;;;16.50;61.52;102043.31;10427891;28;20136;-81
2021/07/20 00:26:11;;;;;;;10.40;8.00;;;;;;;17.16;61.06;102195.75;10427709;28;20036;-81
2021/07/20 00:31:13;;;;;;;11.65;7.63;;;;;;;17.26;60.88;102189.84;10443882;28;20033;-81
2021/07/20 00:36:13;;;;;;;9.05;7.47;;;;;;;16.95;60.83;102137.44;10426394;28;20067;-81
2021/07/20 00:41:14;;;;;;;20.13;9.95;;;;;;;17.18;60.69;102177.22;10443863;28;20151;-81
2021/07/20 00:46:15;;;;;;;13.30;7.63;;;;;;;17.09;61.75;102175.75;10450567;28;20040;-81
2021/07/20 00:51:16;;;;;;;19.60;9.00;;;;;;;17.09;61.78;102178.47;10443200;28;20103;-82
2021/07/20 00:56:17;;;;;;;13.13;7.00;;;;;;;16.58;61.60;102094.22;10442981;28;20064;-81
2021/07/20 01:01:19;;;;;;;11.85;8.48;;;;;;;15.76;61.12;102005.94;10442657;28;20044;-81
2021/07/20 01:06:19;;;;;;;14.32;8.00;;;;;;;17.10;60.88;102181.03;10441770;28;20061;-81
2021/07/20 01:11:21;;;;;;;20.23;9.30;;;;;;;16.11;61.27;102035.88;10442603;28;20547;-81
2021/07/20 01:16:22;;;;;;;12.50;7.57;;;;;;;16.90;61.83;102180.97;10442365;28;20029;-80
2021/07/20 01:21:25;;;;;;;19.60;9.23;;;;;;;16.54;61.97;102109.38;10442151;28;20025;-81
2021/07/20 01:26:27;;;;;;;12.57;8.43;;;;;;;16.93;61.85;102172.34;10441895;28;20106;-82
2021/07/20 01:31:29;;;;;;;17.15;9.07;;;;;;;16.89;62.10;102173.84;10441791;28;20053;-81
2021/07/20 01:36:30;;;;;;;11.85;8.23;;;;;;;16.70;61.85;102147.25;10439932;28;20056;-81
2021/07/20 01:41:38;;;;;;;10.80;7.93;;;;;;;16.61;62.58;102159.44;10441375;28;20044;-81
2021/07/20 01:46:40;;;;;;;12.68;8.75;;;;;;;16.89;62.09;102162.91;10441037;28;20029;-81
2021/07/20 01:51:41;;;;;;;13.27;9.02;;;;;;;16.56;62.87;102121.78;10440651;28;20114;-81
2021/07/20 01:56:41;;;;;;;19.25;11.13;;;;;;;16.83;62.65;102168.34;10442508;28;20537;-81
2021/07/20 02:01:59;;;;;;;16.75;10.50;;;;;;;16.77;62.66;102170.03;10449588;28;20043;-81
2021/07/20 02:12:29;;;;;;;19.52;10.02;;;;;;;15.78;63.42;102012.88;10442845;28;20072;-81
2021/07/20 02:17:30;;;;;;;17.27;10.20;;;;;;;16.66;63.98;102170.63;10440978;28;20099;-81
2021/07/20 02:22:34;;;;;;;20.13;9.50;;;;;;;16.61;64.06;102171.22;10455886;28;20130;-81
2021/07/20 02:27:41;;;;;;;21.33;10.40;;;;;;;16.67;63.65;102175.03;10456473;28;20029;-81
2021/07/20 02:32:44;;;;;;;20.95;10.82;;;;;;;16.54;63.72;102180.47;10439482;28;20048;-81
2021/07/20 02:37:45;;;;;;;21.50;10.55;;;;;;;16.59;64.04;102176.06;10454681;28;20124;-81
2021/07/20 02:42:46;;;;;;;22.02;13.05;;;;;;;16.53;64.38;102171.44;10455487;28;20029;-81
2021/07/20 02:47:47;;;;;;;12.75;10.55;;;;;;;15.64;64.18;102029.41;10438807;28;20025;-81
2021/07/20 02:52:53;;;;;;;16.23;10.57;;;;;;;16.23;64.72;102151.75;10455306;28;20029;-81
2021/07/20 02:57:54;;;;;;;17.15;10.73;;;;;;;16.27;65.50;102177.63;10454980;28;20041;-81
2021/07/20 03:02:56;;;;;;;15.10;10.50;;;;;;;15.66;65.21;102092.81;10422045;28;20037;-81
2021/07/20 03:07:58;;;;;;;23.05;12.40;;;;;;;15.42;64.68;102029.50;10438161;28;20070;-82
2021/07/20 03:13:03;;;;;;;24.17;12.07;;;;;;;16.11;64.88;102142.44;10430741;28;20047;-81
2021/07/20 03:18:04;;;;;;;21.92;12.60;;;;;;;16.21;65.08;102182.03;10423102;28;20392;-81
2021/07/20 03:23:05;;;;;;;20.10;11.60;;;;;;;16.18;64.72;102176.97;10438286;28;20071;-81
2021/07/20 03:28:06;;;;;;;20.23;13.55;;;;;;;16.11;65.63;102189.75;10421730;28;20041;-81
2021/07/20 03:33:07;;;;;;;20.75;11.48;;;;;;;16.18;65.15;102179.72;10437424;28;20037;-81
2021/07/20 03:38:10;;;;;;;23.00;12.43;;;;;;;15.11;65.20;102000.78;10438084;28;20036;-81
2021/07/20 03:43:11;;;;;;;22.08;11.77;;;;;;;15.50;65.46;102083.09;10455362;28;20071;-81
2021/07/20 03:48:14;;;;;;;16.67;13.00;;;;;;;16.20;65.26;102179.50;10436995;28;20075;-81
2021/07/20 03:53:17;;;;;;;23.98;13.85;;;;;;;16.16;64.80;102153.63;10426594;28;20140;-81
2021/07/20 03:58:18;;;;;;;21.52;11.95;;;;;;;15.90;64.91;102114.22;10428922;28;20098;-81
2021/07/20 04:03:24;;;;;;;17.38;10.48;;;;;;;15.94;64.61;102126.41;10460845;28;20820;-82
2021/07/20 04:08:26;;;;;;;18.77;12.45;;;;;;;16.09;64.62;102144.56;10430022;28;20045;-82
2021/07/20 04:13:27;;;;;;;15.13;11.13;;;;;;;16.35;64.37;102184.81;10461275;28;20075;-81
2021/07/20 04:18:28;;;;;;;32.00;13.25;;;;;;;14.99;64.54;101941.53;10461239;28;20101;-81
2021/07/20 04:23:30;;;;;;;25.70;13.70;;;;;;;16.49;64.42;102178.34;10461818;28;20053;-81
2021/07/20 04:28:55;;;;;;;19.58;12.10;;;;;;;16.55;63.75;102177.50;10449942;28;20064;-81
2021/07/20 04:33:57;;;;;;;21.05;11.93;;;;;;;16.62;64.16;102185.72;10382784;28;20073;-81
2021/07/20 04:38:58;;;;;;;20.92;12.15;;;;;;;16.70;63.77;102182.81;10399455;28;20401;-81
2021/07/20 04:43:59;;;;;;;15.50;11.73;;;;;;;16.82;63.68;102188.56;10399366;28;20045;-81
2021/07/20 04:49:02;;;;;;;36.53;13.18;;;;;;;16.87;63.67;102192.34;10398501;28;20556;-81
2021/07/20 04:54:05;;;;;;;25.27;12.43;;;;;;;16.77;63.41;102150.03;10382741;28;20046;-81
2021/07/20 04:59:06;;;;;;;20.30;12.85;;;;;;;17.32;62.90;102167.09;10415120;28;20543;-81
2021/07/20 05:04:07;;;;;;;27.20;12.68;;;;;;;18.37;60.30;102165.16;10424764;28;20053;-82
2021/07/20 05:09:07;;;;;;;26.20;13.48;;;;;;;19.09;59.10;102195.16;10458780;28;20081;-81
2021/07/20 05:14:08;;;;;;;21.35;11.90;;;;;;;19.47;57.95;102170.34;10442198;28;20101;-81
2021/07/20 05:19:10;;;;;;;18.90;9.32;;;;;;;19.92;56.82;102190.19;10457945;28;20040;-81
2021/07/20 05:24:17;;;;;;;23.83;12.40;;;;;;;20.20;56.14;102191.56;10442050;28;20041;-81
2021/07/20 05:29:39;;;;;;;20.20;10.77;;;;;;;19.44;56.34;102008.69;10458338;28;20457;-82
2021/07/20 05:34:41;;;;;;;17.65;12.13;;;;;;;20.79;55.45;102189.09;10396154;28;20149;-81
2021/07/20 05:39:43;;;;;;;17.27;10.00;;;;;;;21.10;53.86;102188.81;10371069;28;20509;-81
2021/07/20 05:44:47;;;;;;;10.85;9.63;;;;;;;21.42;52.94;102191.28;10382413;28;20240;-80
2021/07/20 05:49:48;;;;;;;13.50;9.32;;;;;;;21.67;52.38;102162.66;10393656;28;20496;-81
2021/07/20 05:54:48;;;;;;;15.18;9.07;;;;;;;22.13;51.41;102188.47;10337481;28;20077;-81
2021/07/20 05:59:49;;;;;;;15.55;8.85;;;;;;;22.69;50.39;102192.38;10379512;28;20475;-81
2021/07/20 06:05:14;;;;;;;17.83;7.25;;;;;;;23.36;50.71;102200.78;10379048;28;20057;-86
2021/07/20 06:10:19;;;;;;;10.73;7.60;;;;;;;23.44;49.66;102167.16;10442203;28;20183;-83
2021/07/20 06:15:25;;;;;;;12.30;7.68;;;;;;;22.90;48.28;102038.91;10418145;28;20170;-84
2021/07/20 06:21:11;;;;;;;10.30;5.93;;;;;;;24.19;48.80;102200.06;10420296;28;20436;-84
2021/07/20 06:26:12;;;;;;;10.88;7.15;;;;;;;23.23;45.73;102010.44;10363247;28;20512;-84
2021/07/20 06:31:16;;;;;;;16.58;7.00;;;;;;;24.92;45.19;102208.91;10438779;28;20041;-83
2021/07/20 06:36:19;;;;;;;11.32;6.03;;;;;;;23.99;42.35;102051.19;10437803;28;20108;-83
2021/07/20 06:41:20;;;;;;;8.63;6.63;;;;;;;24.89;43.73;102204.75;10456862;28;20029;-83
2021/07/20 06:46:22;;;;;;;11.55;6.55;;;;;;;25.50;43.26;102216.41;10439713;28;20103;-79
2021/07/20 06:51:23;;;;;;;7.22;6.25;;;;;;;23.81;41.39;102011.72;10439142;28;20122;-80
2021/07/20 06:56:32;;;;;;;8.70;4.70;;;;;;;25.79;42.78;102209.66;10428900;28;20392;-82
2021/07/20 07:01:33;;;;;;;10.60;6.70;;;;;;;24.58;41.46;102070.66;10428241;28;20029;-82
2021/07/20 07:06:54;;;;;;;11.15;6.72;;;;;;;25.64;39.94;102205.66;10421207;28;20476;-82
2021/07/20 07:11:55;;;;;;;6.40;5.80;;;;;;;26.12;40.48;102214.00;10519684;28;20488;-82
2021/07/20 07:17:06;;;;;;;10.32;7.55;;;;;;;25.84;40.23;102209.69;10504046;28;20044;-82
2021/07/20 07:22:14;;;;;;;15.30;6.90;;;;;;;26.22;41.48;102222.38;10505405;28;20122;-82
2021/07/20 07:27:15;;;;;;;8.38;6.57;;;;;;;26.11;38.33;102223.47;10526042;28;20147;-83
2021/07/20 07:32:15;;;;;;;6.88;5.40;;;;;;;26.84;39.27;102229.00;10512711;28;20031;-79
2021/07/20 07:37:19;;;;;;;9.85;7.85;;;;;;;27.16;38.43;102223.25;10480105;28;20036;-81
2021/07/20 07:42:20;;;;;;;6.63;5.88;;;;;;;27.57;37.58;102221.28;10470581;28;20037;-80
2021/07/20 07:47:23;;;;;;;12.90;6.15;;;;;;;27.31;37.99;102233.50;10470297;28;20028;-83
2021/07/20 07:52:24;;;;;;;7.68;6.95;;;;;;;27.84;37.68;102217.34;10470556;28;20024;-82
2021/07/20 07:57:32;;;;;;;11.52;6.95;;;;;;;27.73;38.14;102132.19;10469871;28;20043;-82
2021/07/20 08:02:35;;;;;;;9.10;7.07;;;;;;;28.24;37.80;102223.91;10486232;28;20071;-82
2021/07/20 08:07:36;;;;;;;7.32;5.60;;;;;;;28.14;35.96;102233.13;10492382;28;20068;-80
2021/07/20 08:13:11;;;;;;;10.10;6.78;;;;;;;28.09;41.12;102207.25;10472018;28;20039;-84
2021/07/20 08:18:20;;;;;;;8.07;6.03;;;;;;;28.32;37.60;102226.09;10504137;28;20151;-79
2021/07/20 08:23:21;;;;;;;10.20;7.22;;;;;;;28.62;35.83;102202.00;10474600;28;20064;-79
2021/07/20 08:28:52;;;;;;;7.43;6.55;;;;;;;28.46;36.66;102206.81;10428127;28;20431;-81
2021/07/20 08:33:56;;;;;;;7.07;5.70;;;;;;;28.38;37.47;102118.25;10461000;28;20095;-76
2021/07/20 08:38:57;;;;;;;10.98;7.20;;;;;;;27.91;37.18;102075.91;10504325;28;20492;-82
2021/07/20 08:44:19;;;;;;;11.02;7.78;;;;;;;28.32;37.33;102217.75;10526407;28;20181;-84
2021/07/20 08:49:52;;;;;;;9.27;6.78;;;;;;;28.87;37.55;102210.19;10526529;28;20028;-85
2021/07/20 08:55:06;;;;;;;16.13;5.82;;;;;;;28.52;38.88;102111.75;10543553;28;20036;-86
2021/07/20 09:00:10;;;;;;;9.75;6.13;;;;;;;29.13;34.98;102207.25;10542924;28;20090;-82
2021/07/20 09:05:18;;;;;;;11.50;6.18;;;;;;;29.57;35.96;102203.50;10500715;28;20153;-83
2021/07/20 09:10:23;;;;;;;6.25;5.63;;;;;;;29.29;34.60;102219.09;10442670;28;20053;-82
2021/07/20 09:15:25;;;;;;;7.47;5.70;;;;;;;29.00;37.40;102180.81;10458533;28;20060;-82
2021/07/20 09:20:32;;;;;;;18.48;6.95;;;;;;;29.67;35.91;102214.59;10430948;28;20040;-84
2021/07/20 09:25:39;;;;;;;7.28;6.22;;;;;;;29.59;34.10;102190.91;10458022;28;20045;-83
2021/07/20 09:30:48;;;;;;;6.47;5.88;;;;;;;30.32;33.92;102198.19;10441640;28;20037;-84
2021/07/20 09:36:08;;;;;;;8.95;6.95;;;;;;;30.70;34.48;102223.41;10456996;28;20448;-84
2021/07/20 09:41:48;;;;;;;6.20;5.60;;;;;;;30.90;40.56;102215.84;10441111;28;20032;-83
2021/07/20 09:47:08;;;;;;;6.38;5.75;;;;;;;30.95;34.24;102171.00;10458788;28;20040;-85
2021/07/20 09:52:32;;;;;;;8.98;6.35;;;;;;;30.73;32.48;102166.88;10464536;28;20048;-82
2021/07/20 09:57:49;;;;;;;8.23;7.07;;;;;;;32.16;37.10;102192.28;10467216;28;20115;-83
2021/07/20 10:03:19;;;;;;;11.25;6.38;;;;;;;32.83;36.10;102214.09;10465175;28;20048;-82
2021/07/20 10:08:47;;;;;;;7.05;6.43;;;;;;;33.19;35.40;102215.22;10498302;28;20048;-82
2021/07/20 10:14:25;;;;;;;7.47;6.75;;;;;;;32.18;37.25;102211.59;10480701;28;20044;-75
2021/07/20 10:19:44;;;;;;;13.15;6.68;;;;;;;31.81;35.22;102207.00;10480848;28;20036;-75
2021/07/20 10:24:47;;;;;;;6.75;6.13;;;;;;;30.94;31.48;102107.81;10480397;28;20468;-75
2021/07/20 10:30:08;;;;;;;9.75;8.63;;;;;;;32.63;33.63;102194.91;10464527;28;20036;-77
2021/07/20 10:35:13;;;;;;;12.15;7.43;;;;;;;33.20;31.17;102197.19;10446946;28;20392;-77
2021/07/20 10:40:16;;;;;;;11.00;7.97;;;;;;;32.68;31.02;102200.41;10463618;28;20028;-77
2021/07/20 10:45:18;;;;;;;9.73;7.93;;;;;;;32.49;40.35;102175.34;10479885;28;20115;-75
2021/07/20 10:50:30;;;;;;;9.35;7.60;;;;;;;33.30;33.74;102180.09;10463687;28;20388;-77
2021/07/20 10:55:42;;;;;;;8.85;7.63;;;;;;;31.56;31.34;102088.75;10463137;28;20039;-80
2021/07/20 11:01:22;;;;;;;10.10;7.80;;;;;;;32.99;32.94;102178.06;10462669;28;20117;-78
2021/07/20 11:06:23;;;;;;;8.73;7.82;;;;;;;32.03;32.36;102170.69;10295608;28;20045;-80
2021/07/20 11:11:40;;;;;;;7.50;6.90;;;;;;;32.00;35.66;102164.91;10401455;28;20041;-78
2021/07/20 11:16:41;;;;;;;10.27;7.85;;;;;;;32.16;34.36;102076.53;10438995;28;20079;-79
2021/07/20 11:21:43;;;;;;;7.25;6.03;;;;;;;33.92;31.97;102173.59;10454621;28;20494;-79
2021/07/20 11:26:44;;;;;;;7.72;6.72;;;;;;;33.51;31.39;102178.41;10456214;28;20039;-79
2021/07/20 11:31:56;;;;;;;6.03;5.15;;;;;;;33.32;35.29;102172.19;10438232;28;20452;-78
2021/07/20 11:37:04;;;;;;;7.93;7.00;;;;;;;32.50;34.20;102168.56;10454489;28;20045;-78
2021/07/20 11:42:21;;;;;;;6.70;5.97;;;;;;;33.13;33.85;102112.63;10422320;28;20036;-78
2021/07/20 11:47:31;;;;;;;7.45;6.45;;;;;;;33.85;32.13;102173.25;10437993;28;20101;-79
2021/07/20 11:52:54;;;;;;;8.20;6.68;;;;;;;33.06;33.10;102113.91;10455635;28;20021;-78
2021/07/20 11:58:14;;;;;;;15.95;7.00;;;;;;;33.58;39.16;102155.47;10437819;28;20029;-79
2021/07/20 12:03:32;;;;;;;11.52;8.00;;;;;;;32.85;35.16;101989.31;10439248;28;20055;-74
2021/07/20 12:08:55;;;;;;;8.60;7.70;;;;;;;33.07;31.24;102145.59;10462669;28;20059;-72
2021/07/20 12:14:07;;;;;;;10.73;6.65;;;;;;;32.56;36.35;102108.41;10497172;28;20343;-73
2021/07/20 12:19:08;;;;;;;8.30;5.90;;;;;;;31.60;31.14;102011.38;10482131;28;20105;-74
2021/07/20 12:24:10;;;;;;;7.28;6.20;;;;;;;32.03;38.68;102117.47;10464213;28;20117;-74
2021/07/20 12:29:52;;;;;;;8.50;6.00;;;;;;;32.70;38.27;102136.41;10465739;28;20040;-76
2021/07/20 12:34:52;;;;;;;16.02;6.35;;;;;;;34.01;31.92;102158.47;10481993;28;20097;-75
2021/07/20 12:39:57;;;;;;;6.85;5.93;;;;;;;33.33;30.82;102137.31;10465189;28;20059;-74
2021/07/20 12:45:05;;;;;;;7.95;6.50;;;;;;;33.62;32.26;102071.38;10499270;28;20455;-75
2021/07/20 12:50:06;;;;;;;5.85;5.40;;;;;;;34.08;30.26;102005.34;10500878;28;20036;-75
2021/07/20 12:55:17;;;;;;;7.88;5.95;;;;;;;34.17;33.95;102096.97;10467056;28;20444;-74
2021/07/20 13:00:23;;;;;;;5.82;5.25;;;;;;;35.07;29.91;102135.69;10479469;28;20460;-76
2021/07/20 13:05:28;;;;;;;10.07;6.00;;;;;;;34.31;32.65;102124.13;10462990;28;20037;-74
2021/07/20 13:10:31;;;;;;;9.10;5.28;;;;;;;32.55;31.55;102143.22;10495765;28;20368;-75
2021/07/20 13:15:32;;;;;;;14.23;6.80;;;;;;;32.94;31.29;102127.66;10494631;28;20067;-75
2021/07/20 13:20:33;;;;;;;9.05;5.72;;;;;;;33.84;29.19;102130.28;10476096;28;20352;-74
2021/07/20 13:25:33;;;;;;;13.15;6.10;;;;;;;32.75;33.85;102130.66;10494668;28;20447;-73
2021/07/20 13:30:34;;;;;;;5.85;5.35;;;;;;;32.42;31.64;102130.88;10494248;28;20059;-75
2021/07/20 13:35:34;;;;;;;7.10;5.97;;;;;;;32.60;32.42;102024.47;10493967;28;20122;-74
2021/07/20 13:40:35;;;;;;;6.75;6.15;;;;;;;33.62;30.15;102133.19;10492823;28;20198;-77
2021/07/20 13:45:36;;;;;;;5.90;5.30;;;;;;;32.13;30.40;101996.75;10459264;28;20036;-75
2021/07/20 13:50:37;;;;;;;6.30;4.85;;;;;;;33.15;31.99;102122.34;10477839;28;20044;-76
2021/07/20 13:55:50;;;;;;;6.40;5.82;;;;;;;33.68;31.33;102126.28;10459846;28;20075;-76
2021/07/20 14:00:50;;;;;;;5.57;4.78;;;;;;;34.26;28.65;102125.09;10460068;28;20043;-76
2021/07/20 14:05:52;;;;;;;5.13;4.68;;;;;;;34.50;29.93;102121.81;10493165;28;20041;-75
2021/07/20 14:10:54;;;;;;;6.65;5.38;;;;;;;33.93;30.68;102107.81;10492564;28;20125;-76
2021/07/20 14:15:55;;;;;;;6.50;5.93;;;;;;;34.30;29.85;102109.22;10497029;28;20047;-76
2021/07/20 14:20:55;;;;;;;5.43;4.93;;;;;;;34.20;30.59;102107.53;10494812;28;20032;-78
2021/07/20 14:25:58;;;;;;;10.57;6.63;;;;;;;34.59;30.07;102114.22;10475042;28;20543;-81
2021/07/20 14:30:59;;;;;;;5.95;5.45;;;;;;;34.26;30.01;102105.41;10497018;28;20074;-80
2021/07/20 14:35:59;;;;;;;6.80;5.20;;;;;;;34.40;30.79;102120.16;10500190;28;20575;-79
2021/07/20 14:41:11;;;;;;;8.50;5.75;;;;;;;32.91;32.79;102111.47;10403556;28;20091;-80
2021/07/20 14:46:15;;;;;;;10.48;5.32;;;;;;;32.74;32.06;102109.38;10468502;28;20099;-80
2021/07/20 14:51:16;;;;;;;9.27;6.43;;;;;;;31.73;31.44;102102.94;10479861;28;20101;-80
2021/07/20 14:56:18;;;;;;;6.20;5.43;;;;;;;31.94;31.84;102100.59;10499579;28;20029;-80
2021/07/20 15:01:29;;;;;;;6.85;6.07;;;;;;;31.16;36.78;101923.28;10478471;28;20090;-81
2021/07/20 15:06:38;;;;;;;10.40;7.03;;;;;;;32.79;33.03;102095.22;10448911;28;20086;-80
2021/07/20 15:11:50;;;;;;;7.68;6.03;;;;;;;32.37;35.91;102085.31;10425528;28;20056;-81
2021/07/20 15:17:08;;;;;;;6.32;4.68;;;;;;;31.65;30.87;101958.06;10460887;28;20378;-82
2021/07/20 15:22:19;;;;;;;5.35;4.90;;;;;;;32.09;31.93;102096.59;10451689;28;20186;-81
2021/07/20 15:27:24;;;;;;;11.75;4.97;;;;;;;32.28;32.92;102022.72;10419745;28;20428;-80
2021/07/20 15:32:27;;;;;;;4.22;3.95;;;;;;;31.82;31.50;101977.00;10431322;28;20157;-80
2021/07/20 15:37:29;;;;;;;5.22;4.70;;;;;;;32.10;31.09;102063.78;10431141;28;20452;-81
2021/07/20 15:42:32;;;;;;;6.93;5.95;;;;;;;31.03;32.48;102076.03;10415213;28;20029;-80
2021/07/20 15:47:46;;;;;;;6.38;5.30;;;;;;;31.07;37.07;102067.84;10436918;28;20029;-80
2021/07/20 15:52:46;;;;;;;5.20;4.75;;;;;;;30.67;33.35;102073.00;10441034;28;20064;-80
2021/07/20 15:57:47;;;;;;;5.75;5.13;;;;;;;29.01;35.23;101913.97;10458546;28;20041;-80
2021/07/20 16:02:48;;;;;;;8.90;7.60;;;;;;;28.76;35.59;101951.31;10406698;28;20039;-81
2021/07/20 16:07:52;;;;;;;11.30;6.20;;;;;;;29.97;35.50;102070.16;10459851;28;20064;-80
2021/07/20 16:12:53;;;;;;;8.68;7.05;;;;;;;29.51;35.62;102040.00;10499566;28;20049;-81
2021/07/20 16:18:06;;;;;;;18.23;7.68;;;;;;;29.34;37.27;102073.97;10482303;28;20032;-81
2021/07/20 16:23:08;;;;;;;8.95;6.95;;;;;;;29.79;35.65;102074.56;10484671;28;20028;-80
2021/07/20 16:28:10;;;;;;;8.88;6.95;;;;;;;29.46;38.54;102088.34;10481269;28;20098;-80
2021/07/20 16:33:12;;;;;;;12.32;7.05;;;;;;;27.96;37.28;101961.72;10481159;28;20430;-81
2021/07/20 16:38:19;;;;;;;10.88;7.88;;;;;;;27.52;39.66;102072.97;10480098;28;20037;-80
2021/07/20 16:43:21;;;;;;;14.10;8.02;;;;;;;27.17;41.26;102087.81;10447554;28;20067;-81
2021/07/20 16:48:22;;;;;;;12.65;7.13;;;;;;;27.17;44.34;102107.28;10497459;28;20039;-81
2021/07/20 16:53:23;;;;;;;9.13;8.32;;;;;;;26.62;43.00;102096.69;10479473;28;20374;-81
2021/07/20 16:58:24;;;;;;;12.80;8.20;;;;;;;26.69;40.73;102098.38;10462561;28;20185;-80
2021/07/20 17:03:24;;;;;;;9.95;7.00;;;;;;;26.82;41.12;102097.81;10495614;28;20050;-80
2021/07/20 17:08:25;;;;;;;19.25;7.35;;;;;;;26.84;41.30;102103.94;10492434;28;20246;-80
2021/07/20 17:13:26;;;;;;;11.10;8.50;;;;;;;26.65;41.68;102071.16;10475354;28;20080;-81
2021/07/20 17:18:29;;;;;;;16.95;8.63;;;;;;;26.78;44.12;102085.59;10475101;28;20157;-82
2021/07/20 17:23:30;;;;;;;10.20;7.25;;;;;;;26.77;42.00;102090.34;10477460;28;20029;-80
2021/07/20 17:28:31;;;;;;;9.38;7.80;;;;;;;26.24;43.24;102047.19;10494409;28;20428;-80
2021/07/20 17:33:33;;;;;;;9.85;7.43;;;;;;;26.34;43.36;102103.56;10504163;28;20066;-81
2021/07/20 17:38:34;;;;;;;12.45;7.47;;;;;;;26.13;42.73;102097.16;10461361;28;20028;-80
2021/07/20 17:43:36;;;;;;;8.25;7.15;;;;;;;26.11;43.41;102106.84;10460985;28;20051;-81
2021/07/20 17:48:36;;;;;;;13.63;7.10;;;;;;;26.18;42.87;102111.03;10496538;28;20052;-81
2021/07/20 17:53:37;;;;;;;9.57;6.60;;;;;;;25.85;42.96;102072.63;10473681;28;20340;-81
2021/07/20 17:58:38;;;;;;;14.90;7.78;;;;;;;25.90;44.43;102114.25;10473847;28;20070;-80
2021/07/20 18:03:38;;;;;;;13.00;8.10;;;;;;;25.55;45.41;102078.84;10492726;28;20067;-80
2021/07/20 18:08:39;;;;;;;14.85;8.13;;;;;;;25.45;44.72;102116.50;10473321;28;20056;-81
2021/07/20 18:13:39;;;;;;;9.63;8.20;;;;;;;25.09;44.66;102082.16;10458446;28;20033;-81
2021/07/20 18:18:40;;;;;;;12.07;8.02;;;;;;;24.97;44.92;102115.59;10493091;28;20192;-81
2021/07/20 18:23:40;;;;;;;11.32;8.23;;;;;;;24.76;45.62;102097.97;10475499;28;20090;-81
2021/07/20 18:28:41;;;;;;;12.75;9.77;;;;;;;24.65;45.78;102110.03;10475813;28;20115;-80
2021/07/20 18:33:41;;;;;;;12.05;8.15;;;;;;;24.43;46.27;102117.56;10476181;28;20041;-81
2021/07/20 18:38:42;;;;;;;36.17;8.93;;;;;;;24.23;46.13;102107.94;10493150;28;20417;-81
2021/07/20 18:43:46;;;;;;;17.95;8.45;;;;;;;24.11;46.42;102115.53;10478597;28;20033;-81
2021/07/20 18:48:46;;;;;;;14.10;8.77;;;;;;;24.14;46.41;102126.91;10457916;28;20033;-81
2021/07/20 18:53:47;;;;;;;9.13;6.85;;;;;;;23.15;46.63;101970.22;10474642;28;20036;-81
2021/07/20 18:58:48;;;;;;;16.63;8.50;;;;;;;23.18;47.07;102013.09;10493136;28;20424;-81
2021/07/20 19:03:49;;;;;;;14.30;7.88;;;;;;;23.81;47.15;102136.19;10474837;28;20056;-80
2021/07/20 19:08:49;;;;;;;10.82;8.13;;;;;;;23.71;47.65;102138.84;10494793;28;20497;-81
2021/07/20 19:13:54;;;;;;;10.82;8.00;;;;;;;22.68;48.07;101992.72;10492616;28;20539;-80
2021/07/20 19:18:54;;;;;;;12.52;7.35;;;;;;;23.54;48.17;102152.66;10478045;28;20029;-80
2021/07/20 19:23:55;;;;;;;13.20;8.85;;;;;;;23.33;48.41;102123.88;10476070;28;20535;-80
2021/07/20 19:28:56;;;;;;;11.13;7.70;;;;;;;23.31;48.57;102144.56;10495117;28;20032;-80
2021/07/20 19:33:56;;;;;;;10.23;6.53;;;;;;;22.55;48.71;102036.41;10497111;28;20448;-82
2021/07/20 19:38:57;;;;;;;28.08;7.35;;;;;;;23.13;48.58;102151.19;10515777;28;20476;-81
2021/07/20 19:43:58;;;;;;;15.23;7.63;;;;;;;23.06;48.79;102164.34;10518932;28;20044;-82
2021/07/20 19:49:01;;;;;;;17.52;6.60;;;;;;;22.24;48.99;102052.44;10500557;28;20033;-82
2021/07/20 19:54:02;;;;;;;9.73;7.25;;;;;;;22.04;49.71;102042.63;10533139;28;20066;-83
2021/07/20 19:59:03;;;;;;;13.48;8.70;;;;;;;22.68;49.95;102182.41;10500367;28;20097;-81
2021/07/20 20:04:03;;;;;;;11.45;7.70;;;;;;;22.58;50.05;102188.56;10479788;28;20063;-82
2021/07/20 20:09:04;;;;;;;19.88;7.03;;;;;;;21.81;49.92;102065.63;10483940;28;20057;-82
2021/07/20 20:14:04;;;;;;;9.75;7.95;;;;;;;22.02;50.06;102113.78;10437399;28;20338;-83
2021/07/20 20:19:08;;;;;;;12.82;8.65;;;;;;;22.30;50.49;102183.88;10451208;28;20029;-83
2021/07/20 20:24:09;;;;;;;11.00;7.05;;;;;;;22.21;50.79;102208.28;10455519;28;20328;-83
2021/07/20 20:29:09;;;;;;;16.02;8.27;;;;;;;22.13;50.76;102200.34;10469412;28;20437;-83
2021/07/20 20:34:10;;;;;;;10.80;8.00;;;;;;;21.27;51.09;102108.22;10443526;28;20057;-80
2021/07/20 20:39:11;;;;;;;11.10;8.43;;;;;;;22.01;51.06;102196.75;10442504;28;20033;-83
2021/07/20 20:44:12;;;;;;;18.25;8.35;;;;;;;20.94;51.26;102043.56;10457535;28;20032;-82
2021/07/20 20:49:15;;;;;;;12.02;7.93;;;;;;;21.81;50.86;102197.16;10440681;28;20033;-82
2021/07/20 20:54:16;;;;;;;10.07;7.40;;;;;;;21.50;51.58;102168.03;10441679;28;20044;-83
2021/07/20 20:59:17;;;;;;;10.70;7.38;;;;;;;21.60;51.73;102209.59;10442010;28;20029;-82
2021/07/20 21:04:17;;;;;;;12.88;7.75;;;;;;;21.19;51.95;102145.25;10442215;28;20045;-82
2021/07/20 21:09:19;;;;;;;23.70;10.30;;;;;;;21.35;52.13;102188.66;10423520;28;20056;-83
2021/07/20 21:14:21;;;;;;;10.27;7.68;;;;;;;21.39;52.24;102208.31;10458183;28;20049;-82
2021/07/20 21:19:21;;;;;;;13.52;7.82;;;;;;;21.29;52.14;102206.09;10440397;28;20037;-82
2021/07/20 21:24:22;;;;;;;13.48;8.43;;;;;;;20.86;52.40;102149.34;10457529;28;20033;-82
2021/07/20 21:29:26;;;;;;;14.98;9.50;;;;;;;21.13;51.99;102218.66;10439465;28;20116;-82
2021/07/20 21:34:26;;;;;;;13.05;9.00;;;;;;;21.05;52.55;102207.94;10437402;28;20056;-81
2021/07/20 21:39:27;;;;;;;13.60;7.70;;;;;;;20.02;53.15;102092.56;10438859;28;20107;-81
2021/07/20 21:44:29;;;;;;;18.00;8.25;;;;;;;20.84;53.48;102214.84;10454979;28;20106;-81
2021/07/20 21:49:31;;;;;;;11.27;7.25;;;;;;;19.96;53.97;102072.34;10440173;28;20037;-81
2021/07/20 21:54:32;;;;;;;17.13;8.52;;;;;;;20.63;54.37;102199.69;10422549;28;20100;-80
2021/07/20 21:59:33;;;;;;;12.25;8.93;;;;;;;20.72;54.24;102224.97;10445957;28;20028;-81
2021/07/20 22:04:35;;;;;;;13.60;8.85;;;;;;;20.66;54.23;102215.72;10454246;28;20112;-83
2021/07/20 22:09:35;;;;;;;13.10;7.65;;;;;;;20.50;54.33;102199.84;10474747;28;20044;-83
2021/07/20 22:14:36;;;;;;;12.43;8.80;;;;;;;20.59;54.20;102231.50;10504068;28;20036;-81
2021/07/20 22:19:37;;;;;;;9.80;7.68;;;;;;;20.04;54.42;102143.53;10478164;28;20129;-81
2021/07/20 22:24:37;;;;;;;12.95;9.85;;;;;;;20.50;54.46;102224.59;10477965;28;20036;-81
2021/07/20 22:29:38;;;;;;;17.10;11.82;;;;;;;20.47;54.71;102235.25;10492415;28;20229;-81
2021/07/20 22:34:38;;;;;;;18.55;9.70;;;;;;;20.30;54.50;102215.78;10475569;28;20120;-82
2021/07/20 22:39:39;;;;;;;12.90;9.15;;;;;;;19.97;54.77;102178.47;10476159;28;20117;-81
2021/07/20 22:44:39;;;;;;;15.70;9.52;;;;;;;20.20;55.07;102219.06;10458902;28;20033;-82
2021/07/20 22:49:40;;;;;;;18.42;11.32;;;;;;;20.12;55.06;102206.44;10459629;28;20474;-81
2021/07/20 22:54:43;;;;;;;22.52;12.45;;;;;;;20.28;55.80;102242.66;10475305;28;20408;-82
2021/07/20 22:59:45;;;;;;;17.45;13.05;;;;;;;20.26;56.40;102251.16;10480637;28;20439;-81
2021/07/20 23:04:46;;;;;;;24.38;12.70;;;;;;;20.24;55.74;102246.94;10474691;28;20145;-84
2021/07/20 23:10:08;;;;;;;14.65;10.77;;;;;;;20.13;54.18;102252.16;10494225;28;20135;-81